createdAt,value
2019-05-30T00:00:38.590Z,0
2019-05-30T00:01:48.344Z,0
2019-05-30T00:03:00.257Z,0
2019-05-30T00:04:11.913Z,0
2019-05-30T00:05:21.615Z,0
2019-05-30T00:06:31.322Z,0
2019-05-30T00:07:41.276Z,0
2019-05-30T00:08:51.115Z,0
2019-05-30T00:10:02.810Z,0
2019-05-30T00:11:12.850Z,0
2019-05-30T00:12:22.556Z,0
2019-05-30T00:13:32.509Z,0
2019-05-30T00:14:42.477Z,0
2019-05-30T00:15:52.430Z,0
2019-05-30T00:17:04.981Z,0
2019-05-30T00:18:14.843Z,0
2019-05-30T00:19:24.813Z,0
2019-05-30T00:20:34.791Z,0
2019-05-30T00:21:44.739Z,0
2019-05-30T00:22:54.647Z,0
2019-05-30T00:24:06.646Z,0
2019-05-30T00:25:16.353Z,0
2019-05-30T00:26:26.317Z,0
2019-05-30T00:27:35.776Z,0
2019-05-30T00:28:45.730Z,0
2019-05-30T00:29:55.673Z,0
2019-05-30T00:31:07.298Z,0
2019-05-30T00:32:17.467Z,0
2019-05-30T00:33:27.420Z,0
2019-05-30T00:34:37.464Z,0
2019-05-30T00:35:47.407Z,0
2019-05-30T00:36:58.069Z,0
2019-05-30T00:38:09.318Z,0
2019-05-30T00:39:19.041Z,0
2019-05-30T00:40:28.758Z,0
2019-05-30T00:41:38.713Z,0
2019-05-30T00:42:48.406Z,0
2019-05-30T00:43:58.365Z,0
2019-05-30T00:45:26.401Z,0
2019-05-30T00:46:36.116Z,0
2019-05-30T00:47:46.067Z,0
2019-05-30T00:48:56.294Z,0
2019-05-30T00:50:08.816Z,0
2019-05-30T00:51:18.505Z,0
2019-05-30T00:52:28.507Z,0
2019-05-30T00:53:38.213Z,0
2019-05-30T00:54:47.928Z,0
2019-05-30T00:55:59.105Z,0
2019-05-30T00:57:11.747Z,0
2019-05-30T00:58:21.466Z,0
2019-05-30T00:59:31.435Z,0
2019-05-30T01:00:52.833Z,0
2019-05-30T01:02:04.906Z,0
2019-05-30T01:03:18.315Z,0
2019-05-30T01:04:28.310Z,0
2019-05-30T01:05:38.262Z,0
2019-05-30T01:06:48.265Z,0
2019-05-30T01:07:59.071Z,0
2019-05-30T01:09:10.301Z,0
2019-05-30T01:10:20.261Z,0
2019-05-30T01:11:30.226Z,0
2019-05-30T01:12:40.302Z,0
2019-05-30T01:13:50.263Z,0
2019-05-30T01:15:01.392Z,0
2019-05-30T01:16:12.758Z,0
2019-05-30T01:17:22.209Z,0
2019-05-30T01:18:31.923Z,0
2019-05-30T01:19:41.912Z,0
2019-05-30T01:20:51.883Z,0
2019-05-30T01:22:03.280Z,0
2019-05-30T01:23:14.620Z,0
2019-05-30T01:24:24.337Z,0
2019-05-30T01:25:34.272Z,0
2019-05-30T01:26:43.979Z,0
2019-05-30T01:27:53.929Z,0
2019-05-30T01:29:05.521Z,0
2019-05-30T01:30:15.318Z,0
2019-05-30T01:31:25.271Z,0
2019-05-30T01:32:35.244Z,0
2019-05-30T01:33:45.201Z,0
2019-05-30T01:34:54.913Z,0
2019-05-30T01:36:06.306Z,0
2019-05-30T01:37:17.099Z,0
2019-05-30T01:38:26.806Z,0
2019-05-30T01:39:36.749Z,0
2019-05-30T01:40:46.698Z,0
2019-05-30T01:41:57.632Z,0
2019-05-30T01:43:08.850Z,0
2019-05-30T01:44:18.790Z,0
2019-05-30T01:45:28.489Z,0
2019-05-30T01:46:38.179Z,0
2019-05-30T01:47:48.196Z,0
2019-05-30T01:48:58.396Z,0
2019-05-30T01:50:11.371Z,0
2019-05-30T01:51:21.063Z,0
2019-05-30T01:52:30.848Z,0
2019-05-30T01:53:40.607Z,0
2019-05-30T01:54:50.055Z,0
2019-05-30T01:56:00.912Z,0
2019-05-30T01:57:11.603Z,0
2019-05-30T01:58:21.557Z,0
2019-05-30T01:59:31.254Z,0
2019-05-30T02:00:40.695Z,0
2019-05-30T02:01:50.651Z,0
2019-05-30T02:03:01.312Z,0
2019-05-30T02:04:13.931Z,0
2019-05-30T02:05:23.880Z,0
2019-05-30T02:06:37.245Z,0
2019-05-30T02:07:47.936Z,0
2019-05-30T02:08:57.387Z,0
2019-05-30T02:10:10.193Z,0
2019-05-30T02:11:20.220Z,0
2019-05-30T02:12:30.177Z,0
2019-05-30T02:13:40.123Z,0
2019-05-30T02:14:50.084Z,0
2019-05-30T02:16:00.046Z,0
2019-05-30T02:17:12.567Z,0
2019-05-30T02:18:22.527Z,0
2019-05-30T02:19:32.484Z,0
2019-05-30T02:20:42.176Z,0
2019-05-30T02:21:52.133Z,0
2019-05-30T02:23:03.964Z,0
2019-05-30T02:24:17.155Z,0
2019-05-30T02:25:27.096Z,0
2019-05-30T02:26:36.584Z,0
2019-05-30T02:27:46.544Z,0
2019-05-30T02:28:56.502Z,0
2019-05-30T02:30:14.978Z,0
2019-05-30T02:31:45.082Z,0
2019-05-30T02:32:54.792Z,0
2019-05-30T02:34:11.412Z,0
2019-05-30T02:35:22.329Z,0
2019-05-30T02:36:32.305Z,0
2019-05-30T02:37:42.313Z,0
2019-05-30T02:38:51.822Z,0
2019-05-30T02:40:14.017Z,0
2019-05-30T02:41:24.336Z,0
2019-05-30T02:42:34.313Z,0
2019-05-30T02:43:44.044Z,0
2019-05-30T02:44:54.017Z,5
2019-05-30T02:46:07.968Z,5
2019-05-30T02:47:22.298Z,5
2019-05-30T02:48:32.461Z,5
2019-05-30T02:49:41.668Z,5
2019-05-30T02:50:51.646Z,5
2019-05-30T02:52:02.516Z,5
2019-05-30T02:53:17.532Z,10
2019-05-30T02:54:27.013Z,10
2019-05-30T02:55:36.739Z,10
2019-05-30T02:56:46.438Z,10
2019-05-30T02:57:56.426Z,10
2019-05-30T02:59:11.594Z,10
2019-05-30T03:00:27.032Z,15
2019-05-30T03:01:36.758Z,15
2019-05-30T03:02:46.763Z,15
2019-05-30T03:03:56.761Z,15
2019-05-30T03:05:12.558Z,20
2019-05-30T03:06:24.172Z,20
2019-05-30T03:07:34.174Z,20
2019-05-30T03:08:44.160Z,20
2019-05-30T03:09:54.175Z,25
2019-05-30T03:11:07.758Z,25
2019-05-30T03:12:21.061Z,25
2019-05-30T03:13:31.011Z,30
2019-05-30T03:14:40.991Z,30
2019-05-30T03:15:50.745Z,30
2019-05-30T03:17:02.546Z,30
2019-05-30T03:18:20.053Z,35
2019-05-30T03:19:30.032Z,35
2019-05-30T03:20:39.985Z,35
2019-05-30T03:21:49.960Z,40
2019-05-30T03:22:59.944Z,40
2019-05-30T03:24:16.801Z,40
2019-05-30T03:25:26.752Z,45
2019-05-30T03:26:36.483Z,45
2019-05-30T03:27:46.455Z,45
2019-05-30T03:29:00.371Z,50
2019-05-30T03:30:32.551Z,50
2019-05-30T03:31:42.537Z,50
2019-05-30T03:33:47.185Z,55
2019-05-30T03:34:56.685Z,55
2019-05-30T03:36:31.513Z,60
2019-05-30T03:37:41.558Z,60
2019-05-30T03:38:51.323Z,65
2019-05-30T03:40:01.078Z,65
2019-05-30T03:41:16.071Z,65
2019-05-30T03:42:25.789Z,70
2019-05-30T03:43:35.743Z,70
2019-05-30T03:44:45.712Z,70
2019-05-30T03:45:55.709Z,70
2019-05-30T03:47:08.347Z,75
2019-05-30T03:48:23.049Z,75
2019-05-30T03:49:33.019Z,75
2019-05-30T03:50:42.735Z,80
2019-05-30T03:51:52.457Z,80
2019-05-30T03:53:04.362Z,80
2019-05-30T03:54:20.673Z,80
2019-05-30T03:55:30.651Z,85
2019-05-30T03:56:40.352Z,85
2019-05-30T03:57:50.136Z,85
2019-05-30T03:59:00.134Z,90
2019-05-30T04:00:15.611Z,90
2019-05-30T04:01:25.684Z,90
2019-05-30T04:02:55.040Z,95
2019-05-30T04:04:06.621Z,95
2019-05-30T04:05:23.940Z,95
2019-05-30T04:06:33.955Z,100
2019-05-30T04:07:43.918Z,100
2019-05-30T04:08:53.867Z,100
2019-05-30T04:10:03.837Z,100
2019-05-30T04:11:19.808Z,105
2019-05-30T04:12:29.596Z,105
2019-05-30T04:13:39.637Z,105
2019-05-30T04:14:49.376Z,110
2019-05-30T04:15:59.375Z,110
2019-05-30T04:17:14.923Z,110
2019-05-30T04:18:26.842Z,110
2019-05-30T04:19:36.543Z,115
2019-05-30T04:20:46.251Z,115
2019-05-30T04:21:56.222Z,115
2019-05-30T04:23:06.181Z,115
2019-05-30T04:24:22.187Z,120
2019-05-30T04:25:32.161Z,120
2019-05-30T04:26:42.112Z,120
2019-05-30T04:27:52.059Z,120
2019-05-30T04:29:02.021Z,120
2019-05-30T04:30:14.266Z,125
2019-05-30T04:31:26.861Z,125
2019-05-30T04:32:36.846Z,125
2019-05-30T04:33:46.819Z,125
2019-05-30T04:34:56.544Z,130
2019-05-30T04:36:06.248Z,130
2019-05-30T04:37:21.412Z,130
2019-05-30T04:38:31.127Z,130
2019-05-30T04:39:40.604Z,130
2019-05-30T04:40:50.311Z,135
2019-05-30T04:42:00.302Z,135
2019-05-30T04:43:13.092Z,135
2019-05-30T04:44:27.212Z,135
2019-05-30T04:45:37.858Z,140
2019-05-30T04:46:47.827Z,140
2019-05-30T04:47:57.814Z,140
2019-05-30T04:49:07.774Z,140
2019-05-30T04:50:23.219Z,140
2019-05-30T04:51:33.196Z,145
2019-05-30T04:52:42.897Z,145
2019-05-30T04:53:52.876Z,145
2019-05-30T04:55:02.846Z,145
2019-05-30T04:56:14.463Z,145
2019-05-30T04:57:33.764Z,150
2019-05-30T04:58:49.078Z,150
2019-05-30T04:59:58.786Z,150
2019-05-30T05:01:08.752Z,150
2019-05-30T05:02:25.655Z,155
2019-05-30T05:03:54.811Z,155
2019-05-30T05:05:04.786Z,155
2019-05-30T05:06:19.401Z,155
2019-05-30T05:07:30.993Z,155
2019-05-30T05:08:40.971Z,160
2019-05-30T05:09:50.926Z,160
2019-05-30T05:11:00.645Z,160
2019-05-30T05:12:11.888Z,160
2019-05-30T05:13:24.746Z,160
2019-05-30T05:14:34.708Z,160
2019-05-30T05:15:44.421Z,165
2019-05-30T05:16:54.369Z,165
2019-05-30T05:18:03.575Z,165
2019-05-30T05:19:14.781Z,165
2019-05-30T05:20:26.182Z,165
2019-05-30T05:21:35.889Z,165
2019-05-30T05:22:45.820Z,165
2019-05-30T05:23:55.017Z,165
2019-05-30T05:25:04.975Z,165
2019-05-30T05:26:15.854Z,165
2019-05-30T05:27:27.144Z,170
2019-05-30T05:28:37.155Z,170
2019-05-30T05:29:46.623Z,170
2019-05-30T05:30:56.564Z,170
2019-05-30T05:32:06.501Z,170
2019-05-30T05:33:16.986Z,170
2019-05-30T05:34:28.100Z,175
2019-05-30T05:35:38.049Z,175
2019-05-30T05:36:47.507Z,175
2019-05-30T05:37:57.217Z,175
2019-05-30T05:39:07.241Z,175
2019-05-30T05:40:18.427Z,175
2019-05-30T05:41:31.011Z,175
2019-05-30T05:42:40.988Z,175
2019-05-30T05:43:50.687Z,180
2019-05-30T05:45:00.634Z,175
2019-05-30T05:46:10.606Z,175
2019-05-30T05:47:22.622Z,175
2019-05-30T05:48:33.625Z,175
2019-05-30T05:49:43.323Z,175
2019-05-30T05:50:53.255Z,180
2019-05-30T05:52:03.206Z,180
2019-05-30T05:53:12.967Z,180
2019-05-30T05:54:24.761Z,180
2019-05-30T05:55:36.249Z,180
2019-05-30T05:56:46.182Z,180
2019-05-30T05:57:56.131Z,180
2019-05-30T05:59:06.082Z,180
2019-05-30T06:00:16.852Z,180
2019-05-30T06:01:30.278Z,180
2019-05-30T06:02:40.250Z,180
2019-05-30T06:03:49.701Z,180
2019-05-30T06:04:59.423Z,180
2019-05-30T06:06:09.135Z,180
2019-05-30T06:07:18.825Z,180
2019-05-30T06:08:30.066Z,180
2019-05-30T06:09:40.058Z,180
2019-05-30T06:10:50.008Z,180
2019-05-30T06:11:59.964Z,180
2019-05-30T06:13:09.923Z,180
2019-05-30T06:14:20.239Z,180
2019-05-30T06:15:31.157Z,185
2019-05-30T06:16:41.105Z,185
2019-05-30T06:17:51.077Z,190
2019-05-30T06:19:01.029Z,195
2019-05-30T06:20:11.017Z,195
2019-05-30T06:21:23.327Z,200
2019-05-30T06:22:33.376Z,205
2019-05-30T06:23:45.536Z,210
2019-05-30T06:24:55.601Z,220
2019-05-30T06:26:05.604Z,235
2019-05-30T06:27:15.314Z,245
2019-05-30T06:28:26.159Z,255
2019-05-30T06:29:36.263Z,265
2019-05-30T06:30:46.008Z,270
2019-05-30T06:31:55.703Z,270
2019-05-30T06:33:05.434Z,270
2019-05-30T06:34:38.741Z,265
2019-05-30T06:35:48.977Z,260
2019-05-30T06:36:58.685Z,255
2019-05-30T06:38:08.657Z,250
2019-05-30T06:39:19.237Z,255
2019-05-30T06:40:34.499Z,250
2019-05-30T06:41:44.480Z,250
2019-05-30T06:42:54.495Z,240
2019-05-30T06:44:08.051Z,250
2019-05-30T06:45:18.011Z,250
2019-05-30T06:46:30.453Z,245
2019-05-30T06:47:40.504Z,235
2019-05-30T06:48:50.227Z,230
2019-05-30T06:50:00.175Z,230
2019-05-30T06:51:09.888Z,230
2019-05-30T06:52:20.857Z,230
2019-05-30T06:53:32.245Z,230
2019-05-30T06:54:41.731Z,235
2019-05-30T06:55:51.173Z,235
2019-05-30T06:57:01.145Z,235
2019-05-30T06:58:11.115Z,235
2019-05-30T06:59:21.386Z,230
2019-05-30T07:00:32.990Z,230
2019-05-30T07:01:42.994Z,230
2019-05-30T07:02:53.392Z,230
2019-05-30T07:04:04.508Z,230
2019-05-30T07:05:18.836Z,230
2019-05-30T07:06:34.844Z,225
2019-05-30T07:07:45.826Z,225
2019-05-30T07:08:55.623Z,225
2019-05-30T07:10:05.586Z,220
2019-05-30T07:11:15.283Z,220
2019-05-30T07:12:26.297Z,220
2019-05-30T07:13:38.374Z,215
2019-05-30T07:14:48.103Z,215
2019-05-30T07:15:58.057Z,220
2019-05-30T07:17:08.032Z,220
2019-05-30T07:18:18.006Z,220
2019-05-30T07:19:28.171Z,225
2019-05-30T07:20:38.997Z,225
2019-05-30T07:21:48.453Z,225
2019-05-30T07:22:58.398Z,225
2019-05-30T07:24:08.399Z,220
2019-05-30T07:25:18.352Z,220
2019-05-30T07:26:28.397Z,225
2019-05-30T07:27:39.424Z,225
2019-05-30T07:28:49.372Z,225
2019-05-30T07:29:59.068Z,225
2019-05-30T07:31:08.766Z,225
2019-05-30T07:32:23.904Z,225
2019-05-30T07:33:36.558Z,225
2019-05-30T07:35:05.470Z,225
2019-05-30T07:36:16.089Z,225
2019-05-30T07:37:28.121Z,225
2019-05-30T07:38:39.469Z,225
2019-05-30T07:39:49.431Z,225
2019-05-30T07:40:59.411Z,230
2019-05-30T07:42:15.257Z,230
2019-05-30T07:43:30.156Z,235
2019-05-30T07:44:40.406Z,230
2019-05-30T07:46:03.310Z,230
2019-05-30T07:47:12.999Z,230
2019-05-30T07:48:23.023Z,230
2019-05-30T07:49:34.821Z,230
2019-05-30T07:50:45.883Z,225
2019-05-30T07:51:55.849Z,225
2019-05-30T07:53:05.585Z,225
2019-05-30T07:54:14.779Z,225
2019-05-30T07:55:24.496Z,230
2019-05-30T07:56:35.888Z,225
2019-05-30T07:57:50.519Z,230
2019-05-30T07:59:00.209Z,230
2019-05-30T08:00:09.925Z,230
2019-05-30T08:01:19.909Z,230
2019-05-30T08:02:29.927Z,235
2019-05-30T08:03:39.797Z,230
2019-05-30T08:04:51.582Z,230
2019-05-30T08:06:01.542Z,230
2019-05-30T08:07:11.262Z,230
2019-05-30T08:08:20.978Z,230
2019-05-30T08:09:32.861Z,230
2019-05-30T08:10:43.574Z,230
2019-05-30T08:11:53.521Z,230
2019-05-30T08:13:03.469Z,230
2019-05-30T08:14:13.179Z,230
2019-05-30T08:15:23.138Z,230
2019-05-30T08:16:35.367Z,230
2019-05-30T08:17:49.011Z,230
2019-05-30T08:18:58.471Z,230
2019-05-30T08:20:08.435Z,230
2019-05-30T08:21:18.125Z,230
2019-05-30T08:22:28.087Z,230
2019-05-30T08:23:39.180Z,230
2019-05-30T08:24:49.146Z,230
2019-05-30T08:25:58.841Z,230
2019-05-30T08:27:08.301Z,235
2019-05-30T08:28:17.750Z,235
2019-05-30T08:29:28.034Z,235
2019-05-30T08:30:39.319Z,235
2019-05-30T08:31:49.266Z,235
2019-05-30T08:32:59.237Z,235
2019-05-30T08:34:08.688Z,235
2019-05-30T08:35:18.398Z,240
2019-05-30T08:36:28.741Z,240
2019-05-30T08:37:39.995Z,240
2019-05-30T08:38:52.958Z,240
2019-05-30T08:40:02.643Z,240
2019-05-30T08:41:12.101Z,245
2019-05-30T08:42:22.048Z,245
2019-05-30T08:43:31.744Z,245
2019-05-30T08:44:42.974Z,250
2019-05-30T08:45:52.931Z,250
2019-05-30T08:47:02.926Z,250
2019-05-30T08:48:12.392Z,255
2019-05-30T08:49:22.379Z,255
2019-05-30T08:50:32.658Z,260
2019-05-30T08:51:43.457Z,260
2019-05-30T08:52:53.163Z,260
2019-05-30T08:54:03.130Z,265
2019-05-30T08:55:12.871Z,275
2019-05-30T08:56:23.047Z,280
2019-05-30T08:57:33.013Z,295
2019-05-30T08:58:44.077Z,360
2019-05-30T08:59:54.268Z,425
2019-05-30T09:01:03.726Z,415
2019-05-30T09:02:13.463Z,420
2019-05-30T09:03:22.913Z,405
2019-05-30T09:04:32.631Z,400
2019-05-30T09:06:03.933Z,390
2019-05-30T09:07:14.339Z,385
2019-05-30T09:08:24.378Z,385
2019-05-30T09:09:34.112Z,380
2019-05-30T09:10:48.852Z,375
2019-05-30T09:11:58.823Z,370
2019-05-30T09:13:08.803Z,365
2019-05-30T09:14:18.517Z,360
2019-05-30T09:15:31.549Z,360
2019-05-30T09:16:41.271Z,355
2019-05-30T09:17:53.995Z,355
2019-05-30T09:19:03.703Z,355
2019-05-30T09:20:13.655Z,355
2019-05-30T09:21:23.619Z,355
2019-05-30T09:22:33.079Z,360
2019-05-30T09:23:48.794Z,360
2019-05-30T09:24:58.796Z,365
2019-05-30T09:26:08.501Z,365
2019-05-30T09:27:18.207Z,370
2019-05-30T09:28:28.159Z,375
2019-05-30T09:29:39.582Z,380
2019-05-30T09:30:53.649Z,380
2019-05-30T09:32:03.381Z,385
2019-05-30T09:33:13.381Z,390
2019-05-30T09:34:23.142Z,400
2019-05-30T09:35:32.883Z,405
2019-05-30T09:36:45.187Z,425
2019-05-30T09:37:56.757Z,455
2019-05-30T09:39:06.722Z,470
2019-05-30T09:40:16.697Z,480
2019-05-30T09:41:26.430Z,490
2019-05-30T09:42:36.403Z,530
2019-05-30T09:43:50.582Z,665
2019-05-30T09:45:01.787Z,885
2019-05-30T09:46:11.786Z,925
2019-05-30T09:47:21.495Z,920
2019-05-30T09:48:31.575Z,900
2019-05-30T09:49:43.138Z,875
2019-05-30T09:50:55.956Z,920
2019-05-30T09:52:05.919Z,920
2019-05-30T09:53:15.897Z,885
2019-05-30T09:54:25.905Z,860
2019-05-30T09:55:35.860Z,795
2019-05-30T09:56:48.445Z,760
2019-05-30T09:57:59.184Z,705
2019-05-30T09:59:09.139Z,655
2019-05-30T10:00:18.850Z,610
2019-05-30T10:01:28.740Z,590
2019-05-30T10:02:38.521Z,580
2019-05-30T10:03:52.592Z,565
2019-05-30T10:05:02.301Z,565
2019-05-30T10:06:26.533Z,580
2019-05-30T10:07:38.339Z,590
2019-05-30T10:08:52.993Z,615
2019-05-30T10:10:02.883Z,630
2019-05-30T10:11:15.915Z,665
2019-05-30T10:12:26.152Z,745
2019-05-30T10:13:35.910Z,820
2019-05-30T10:14:48.539Z,815
2019-05-30T10:15:59.724Z,760
2019-05-30T10:17:09.674Z,760
2019-05-30T10:18:19.401Z,760
2019-05-30T10:19:29.373Z,755
2019-05-30T10:20:39.104Z,780
2019-05-30T10:21:51.975Z,810
2019-05-30T10:23:08.363Z,815
2019-05-30T10:24:18.410Z,850
2019-05-30T10:25:28.843Z,885
2019-05-30T10:26:38.804Z,915
2019-05-30T10:27:54.562Z,860
2019-05-30T10:29:04.735Z,875
2019-05-30T10:30:14.744Z,925
2019-05-30T10:31:24.454Z,950
2019-05-30T10:32:34.409Z,970
2019-05-30T10:33:45.886Z,1000
2019-05-30T10:34:58.970Z,990
2019-05-30T10:36:08.704Z,1015
2019-05-30T10:37:18.418Z,1040
2019-05-30T10:38:29.709Z,1060
2019-05-30T10:39:39.435Z,1095
2019-05-30T10:40:52.526Z,1050
2019-05-30T10:42:02.706Z,1100
2019-05-30T10:43:15.745Z,1115
2019-05-30T10:44:25.482Z,1125
2019-05-30T10:45:38.400Z,1060
2019-05-30T10:46:52.665Z,1100
2019-05-30T10:48:04.657Z,1155
2019-05-30T10:49:14.662Z,1125
2019-05-30T10:50:24.354Z,1190
2019-05-30T10:51:34.320Z,1220
2019-05-30T10:52:45.326Z,1195
2019-05-30T10:54:00.523Z,1135
2019-05-30T10:55:10.493Z,1150
2019-05-30T10:56:20.244Z,1200
2019-05-30T10:57:30.202Z,1260
2019-05-30T10:58:40.169Z,1260
2019-05-30T10:59:53.259Z,1310
2019-05-30T11:01:05.319Z,1305
2019-05-30T11:02:15.277Z,1350
2019-05-30T11:03:25.003Z,1295
2019-05-30T11:04:35.003Z,1260
2019-05-30T11:05:46.194Z,1335
2019-05-30T11:07:19.136Z,1340
2019-05-30T11:08:29.089Z,1325
2019-05-30T11:09:39.084Z,1320
2019-05-30T11:10:49.061Z,1340
2019-05-30T11:12:00.585Z,1315
2019-05-30T11:13:15.563Z,1355
2019-05-30T11:14:25.545Z,1410
2019-05-30T11:15:35.506Z,1320
2019-05-30T11:16:45.316Z,1310
2019-05-30T11:18:00.173Z,1340
2019-05-30T11:19:14.813Z,1305
2019-05-30T11:20:24.846Z,1200
2019-05-30T11:21:34.566Z,1240
2019-05-30T11:22:44.523Z,1245
2019-05-30T11:23:59.123Z,1240
2019-05-30T11:25:09.268Z,1315
2019-05-30T11:26:18.989Z,1415
2019-05-30T11:27:28.713Z,1500
2019-05-30T11:28:38.191Z,1560
2019-05-30T11:29:48.677Z,1710
2019-05-30T11:31:04.278Z,1650
2019-05-30T11:32:14.779Z,1565
2019-05-30T11:33:24.743Z,1555
2019-05-30T11:34:34.477Z,1575
2019-05-30T11:35:44.471Z,1690
2019-05-30T11:36:55.501Z,1700
2019-05-30T11:38:06.731Z,1625
2019-05-30T11:39:16.450Z,1725
2019-05-30T11:40:26.411Z,1815
2019-05-30T11:41:36.372Z,1690
2019-05-30T11:42:46.096Z,1610
2019-05-30T11:43:57.928Z,1705
2019-05-30T11:45:09.493Z,1610
2019-05-30T11:46:19.467Z,1635
2019-05-30T11:47:29.423Z,1740
2019-05-30T11:48:39.185Z,1890
2019-05-30T11:49:49.544Z,1975
2019-05-30T11:51:02.487Z,1930
2019-05-30T11:52:12.457Z,1905
2019-05-30T11:53:22.424Z,1950
2019-05-30T11:54:32.425Z,1985
2019-05-30T11:55:42.460Z,1910
2019-05-30T11:56:52.442Z,1780
2019-05-30T11:58:05.552Z,1805
2019-05-30T11:59:15.264Z,1870
2019-05-30T12:00:25.242Z,2000
2019-05-30T12:01:34.951Z,1965
2019-05-30T12:02:44.696Z,1985
2019-05-30T12:03:55.088Z,2020
2019-05-30T12:05:06.131Z,1980
2019-05-30T12:06:15.849Z,1910
2019-05-30T12:07:42.579Z,1950
2019-05-30T12:08:53.103Z,2005
2019-05-30T12:10:04.353Z,1885
2019-05-30T12:11:14.322Z,2025
2019-05-30T12:12:24.286Z,2045
2019-05-30T12:13:33.739Z,1945
2019-05-30T12:14:43.206Z,1985
2019-05-30T12:15:53.795Z,2045
2019-05-30T12:17:04.845Z,2205
2019-05-30T12:18:14.568Z,2020
2019-05-30T12:19:24.539Z,2120
2019-05-30T12:20:34.266Z,2155
2019-05-30T12:21:43.735Z,2185
2019-05-30T12:22:54.239Z,2165
2019-05-30T12:24:04.998Z,2120
2019-05-30T12:25:14.719Z,2140
2019-05-30T12:26:24.412Z,2120
2019-05-30T12:27:34.129Z,2165
2019-05-30T12:28:44.103Z,2140
2019-05-30T12:29:54.478Z,2160
2019-05-30T12:31:13.569Z,2125
2019-05-30T12:32:23.538Z,1495
2019-05-30T12:33:33.513Z,2285
2019-05-30T12:34:43.516Z,2215
2019-05-30T12:35:54.778Z,2205
2019-05-30T12:37:05.684Z,2190
2019-05-30T12:38:16.394Z,2180
2019-05-30T12:39:26.435Z,2245
2019-05-30T12:40:36.427Z,2270
2019-05-30T12:41:46.143Z,2210
2019-05-30T12:43:04.838Z,2280
2019-05-30T12:44:14.988Z,2375
2019-05-30T12:45:24.443Z,2380
2019-05-30T12:46:34.575Z,2365
2019-05-30T12:47:44.564Z,2395
2019-05-30T12:48:55.698Z,2420
2019-05-30T12:50:06.684Z,2420
2019-05-30T12:51:16.645Z,2410
2019-05-30T12:52:26.359Z,2410
2019-05-30T12:53:36.327Z,2420
2019-05-30T12:54:46.033Z,2455
2019-05-30T12:55:56.739Z,2465
2019-05-30T12:57:09.413Z,2570
2019-05-30T12:58:19.128Z,1910
2019-05-30T12:59:28.864Z,2145
2019-05-30T13:00:38.833Z,1730
2019-05-30T13:01:48.789Z,2595
2019-05-30T13:02:59.178Z,1630
2019-05-30T13:04:12.132Z,1510
2019-05-30T13:05:22.100Z,1645
2019-05-30T13:06:32.066Z,2005
2019-05-30T13:07:42.032Z,2075
2019-05-30T13:08:51.754Z,2025
2019-05-30T13:10:03.339Z,2340
2019-05-30T13:11:13.228Z,2400
2019-05-30T13:12:23.215Z,2220
2019-05-30T13:13:33.171Z,2500
2019-05-30T13:14:42.881Z,2375
2019-05-30T13:15:52.601Z,2235
2019-05-30T13:17:03.819Z,2350
2019-05-30T13:18:14.381Z,800
2019-05-30T13:19:24.368Z,1535
2019-05-30T13:20:34.350Z,820
2019-05-30T13:21:44.064Z,1185
2019-05-30T13:22:54.024Z,2255
2019-05-30T13:24:06.507Z,2485
2019-05-30T13:25:16.482Z,2420
2019-05-30T13:26:26.222Z,2205
2019-05-30T13:27:35.929Z,2195
2019-05-30T13:28:45.694Z,2135
2019-05-30T13:29:55.945Z,1285
2019-05-30T13:31:07.281Z,2430
2019-05-30T13:32:17.241Z,2230
2019-05-30T13:33:26.980Z,2360
2019-05-30T13:34:36.934Z,2370
2019-05-30T13:35:46.893Z,2455
2019-05-30T13:36:56.837Z,2460
2019-05-30T13:38:07.672Z,2445
2019-05-30T13:39:17.645Z,2535
2019-05-30T13:40:34.829Z,2460
2019-05-30T13:41:44.792Z,2465
2019-05-30T13:42:54.310Z,2335
2019-05-30T13:44:12.077Z,2455
2019-05-30T13:45:22.047Z,2515
2019-05-30T13:46:32.036Z,2555
2019-05-30T13:47:42.026Z,2440
2019-05-30T13:48:51.786Z,2290
2019-05-30T13:50:03.231Z,775
2019-05-30T13:51:14.402Z,2385
2019-05-30T13:52:24.369Z,2585
2019-05-30T13:53:34.140Z,2455
2019-05-30T13:54:44.120Z,2190
2019-05-30T13:55:53.834Z,1905
2019-05-30T13:57:05.654Z,1925
2019-05-30T13:58:16.993Z,2045
2019-05-30T13:59:26.705Z,2445
2019-05-30T14:00:36.675Z,2460
2019-05-30T14:01:46.664Z,2345
2019-05-30T14:02:56.642Z,2040
2019-05-30T14:04:08.732Z,2010
2019-05-30T14:05:20.076Z,2205
2019-05-30T14:06:29.784Z,2285
2019-05-30T14:07:39.305Z,2290
2019-05-30T14:08:53.198Z,2320
2019-05-30T14:10:04.237Z,2320
2019-05-30T14:11:15.571Z,825
2019-05-30T14:12:25.596Z,965
2019-05-30T14:13:35.360Z,1735
2019-05-30T14:14:45.097Z,915
2019-05-30T14:15:54.817Z,895
2019-05-30T14:17:05.455Z,2320
2019-05-30T14:18:18.305Z,2310
2019-05-30T14:19:29.980Z,2385
2019-05-30T14:20:39.727Z,2385
2019-05-30T14:21:49.703Z,2490
2019-05-30T14:22:59.730Z,2405
2019-05-30T14:24:12.198Z,2315
2019-05-30T14:25:22.175Z,2350
2019-05-30T14:26:32.162Z,2380
2019-05-30T14:27:42.128Z,2460
2019-05-30T14:28:52.103Z,2390
2019-05-30T14:30:03.029Z,2430
2019-05-30T14:31:18.177Z,1705
2019-05-30T14:32:27.660Z,1515
2019-05-30T14:33:37.399Z,920
2019-05-30T14:34:47.381Z,1670
2019-05-30T14:35:57.107Z,1510
2019-05-30T14:37:08.197Z,1580
2019-05-30T14:38:18.404Z,1155
2019-05-30T14:39:28.369Z,945
2019-05-30T14:40:38.109Z,860
2019-05-30T14:41:48.066Z,1675
2019-05-30T14:42:57.783Z,2300
2019-05-30T14:44:07.924Z,985
2019-05-30T14:45:19.457Z,1170
2019-05-30T14:46:29.478Z,925
2019-05-30T14:47:39.457Z,905
2019-05-30T14:48:49.185Z,1075
2019-05-30T14:49:58.889Z,1675
2019-05-30T14:51:09.329Z,1920
2019-05-30T14:52:21.952Z,2065
2019-05-30T14:53:31.668Z,2250
2019-05-30T14:54:41.640Z,2290
2019-05-30T14:55:51.614Z,2200
2019-05-30T14:57:01.622Z,1940
2019-05-30T14:58:13.480Z,2325
2019-05-30T14:59:24.382Z,2280
2019-05-30T15:00:34.155Z,2345
2019-05-30T15:01:43.873Z,2370
2019-05-30T15:02:53.645Z,2255
2019-05-30T15:04:03.372Z,2065
2019-05-30T15:05:16.377Z,2135
2019-05-30T15:06:27.262Z,2005
2019-05-30T15:07:37.224Z,1485
2019-05-30T15:08:47.182Z,720
2019-05-30T15:09:57.173Z,640
2019-05-30T15:11:07.839Z,635
2019-05-30T15:12:19.309Z,635
2019-05-30T15:13:29.322Z,650
2019-05-30T15:14:39.323Z,1015
2019-05-30T15:15:49.302Z,750
2019-05-30T15:16:59.030Z,865
2019-05-30T15:18:09.677Z,1225
2019-05-30T15:19:21.263Z,1400
2019-05-30T15:20:31.231Z,1165
2019-05-30T15:21:41.200Z,1105
2019-05-30T15:22:51.156Z,770
2019-05-30T15:24:00.870Z,725
2019-05-30T15:25:11.939Z,740
2019-05-30T15:26:21.995Z,740
2019-05-30T15:27:31.733Z,735
2019-05-30T15:28:41.471Z,665
2019-05-30T15:29:51.481Z,675
2019-05-30T15:31:01.482Z,705
2019-05-30T15:32:12.648Z,775
2019-05-30T15:33:23.747Z,1240
2019-05-30T15:34:32.947Z,750
2019-05-30T15:35:42.952Z,700
2019-05-30T15:36:52.923Z,720
2019-05-30T15:38:02.395Z,1195
2019-05-30T15:39:13.260Z,910
2019-05-30T15:40:24.123Z,730
2019-05-30T15:41:34.083Z,980
2019-05-30T15:42:44.045Z,800
2019-05-30T15:43:53.755Z,735
2019-05-30T15:45:03.761Z,855
2019-05-30T15:46:15.846Z,750
2019-05-30T15:47:25.868Z,600
2019-05-30T15:48:35.929Z,565
2019-05-30T15:49:45.907Z,660
2019-05-30T15:50:55.611Z,800
2019-05-30T15:52:04.895Z,670
2019-05-30T15:53:17.344Z,690
2019-05-30T15:54:28.655Z,655
2019-05-30T15:55:38.621Z,600
2019-05-30T15:56:48.601Z,530
2019-05-30T15:57:58.309Z,515
2019-05-30T15:59:09.476Z,500
2019-05-30T16:00:22.322Z,485
2019-05-30T16:01:32.035Z,455
2019-05-30T16:02:41.792Z,435
2019-05-30T16:03:51.767Z,430
2019-05-30T16:05:01.489Z,435
2019-05-30T16:06:12.823Z,410
2019-05-30T16:07:23.885Z,390
2019-05-30T16:08:33.858Z,385
2019-05-30T16:09:56.342Z,415
2019-05-30T16:11:06.298Z,550
2019-05-30T16:12:17.418Z,565
2019-05-30T16:13:28.423Z,505
2019-05-30T16:14:38.395Z,475
2019-05-30T16:15:51.630Z,470
2019-05-30T16:17:01.661Z,445
2019-05-30T16:18:11.729Z,410
2019-05-30T16:19:33.321Z,390
2019-05-30T16:20:43.281Z,365
2019-05-30T16:21:53.312Z,350
2019-05-30T16:23:03.305Z,340
2019-05-30T16:24:14.189Z,335